Latest Weather Observations for Sheoaks

IDV60901

Issued at 5:51 pm EDT Tuesday 17 January 2017 (issued every 10 minutes, with the page automatically refreshed every 10 minutes)

About weather observations | Map of Melbourne area stations | Latest observations for Melbourne area | Other Formats
Station Details ID: 087168 Name: SHEOAKS Lat: -37.91 Lon: 144.13 Height: 236.7 m
Data from the previous 72 hours. | See also: Recent months at Sheoaks
Date/Time
EDT
Temp
°C
App
Temp
°C
Dew
Point
°C
Rel
Hum
%
Delta-T
°C
Wind Press
QNH
hPa
Press
MSL
hPa
Rain since
9am
mm
Dir  Spd
km/h
Gust
km/h
Spd
kts
Gust
kts
17/05:30pm 32.5 30.2 7.4 21 13.9 SSW 9 17 5 9 1005.7 1005.0 -
17/05:00pm 33.9 29.8 4.6 16 15.7 SW 15 28 8 15 1005.9 1005.2 -
17/04:30pm 35.9 30.2 -0.5 10 18.1 WSW 19 33 10 18 1005.8 1005.1 -
17/04:00pm 36.7 30.6 0.1 10 18.5 WSW 22 33 12 18 1006.1 1005.4 -
17/03:30pm 36.5 30.9 0.0 10 18.4 WNW 19 35 10 19 1006.5 1005.8 -
17/03:00pm 35.9 29.9 0.9 11 17.9 W 22 39 12 21 1006.9 1006.2 0.2
17/02:30pm 35.3 29.4 1.6 12 17.3 W 22 33 12 18 1007.2 1006.4 -
17/02:00pm 34.0 28.1 1.7 13 16.5 W 22 32 12 17 1007.8 1007.0 -
17/01:30pm 34.3 28.8 4.0 15 16.1 W 22 37 12 20 1008.5 1007.8 -
17/01:00pm 33.8 26.7 1.6 13 16.4 W 28 41 15 22 1008.7 1008.0 -
17/11:30am 33.5 27.1 3.3 15 15.8 WNW 26 46 14 25 1008.8 1008.1 0.0
17/11:22am 33.7 26.8 2.5 14 16.1 WNW 28 46 15 25 1008.8 1008.1 0.0
17/11:00am 33.5 28.1 2.4 14 16.0 WNW 20 41 11 22 1008.7 1008.0 0.0
17/10:30am 33.9 29.1 2.7 14 16.2 WNW 17 30 9 16 1009.1 1008.4 0.0
17/10:00am 29.2 27.4 7.2 25 12.0 SSE 6 7 3 4 1009.2 1008.5 0.0
17/09:30am 26.7 25.4 6.2 27 10.8 NNW 2 4 1 2 1009.6 1008.9 0.0
17/09:00am 23.1 21.7 7.2 36 8.4 N 4 6 2 3 1009.8 1009.1 0.0
17/08:30am 22.5 21.6 7.9 39 7.7 NNW 2 4 1 2 1009.9 1009.2 0.0
17/08:00am 20.1 19.1 7.5 44 6.5 NW 2 4 1 2 1010.1 1009.4 0.0
17/07:30am 18.1 16.6 8.4 53 5.1 NNW 6 7 3 4 1009.6 1008.9 0.0
17/07:00am 18.8 17.5 7.6 48 5.8 NW 4 7 2 4 1009.5 1008.8 0.0
17/06:30am 19.2 17.2 7.3 46 6.1 WNW 7 11 4 6 1009.4 1008.7 0.0
17/06:00am 19.6 17.3 7.4 45 6.3 NW 9 13 5 7 1009.0 1008.3 0.0
17/05:30am 20.2 17.5 7.2 43 6.7 W 11 17 6 9 1009.1 1008.4 0.0
17/05:00am 19.6 17.7 6.7 43 6.6 W 6 7 3 4 1008.6 1007.9 0.0
17/04:30am 20.0 17.9 6.0 40 7.0 W 6 9 3 5 1008.3 1007.5 0.0
17/04:00am 19.8 18.3 6.9 43 6.6 NW 4 7 2 4 1008.3 1007.5 0.0
17/03:30am 21.3 18.4 6.4 38 7.6 W 11 19 6 10 1008.5 1007.8 0.0
17/03:00am 19.9 17.9 7.0 43 6.6 NNW 7 11 4 6 1008.5 1007.8 0.0
17/02:30am 19.0 16.8 7.8 48 5.8 N 9 11 5 6 1008.6 1007.9 0.0
17/02:00am 19.9 17.3 7.9 46 6.3 N 11 17 6 9 1008.8 1008.1 0.0
17/01:30am 20.9 18.7 9.2 47 6.3 N 11 15 6 8 1009.2 1008.5 0.0
17/01:00am 19.8 17.8 10.0 53 5.3 N 11 13 6 7 1009.3 1008.6 0.0
17/12:30am 19.2 17.5 9.9 55 5.0 N 9 9 5 5 1009.8 1009.1 0.0
17/12:00am 18.7 17.6 10.8 60 4.3 N 7 9 4 5 1010.3 1009.6 0.0
 
Date/Time
EDT
Temp
°C
App
Temp
°C
Dew
Point
°C
Rel
Hum
%
Delta-T
°C
Wind Press
QNH
hPa
Press
MSL
hPa
Rain since
9am
mm
Dir  Spd
km/h
Gust
km/h
Spd
kts
Gust
kts
16/11:30pm 19.2 18.7 12.2 64 3.9 N 6 7 3 4 1010.6 1009.9 0.0
16/11:00pm 19.4 19.2 11.9 62 4.2 ESE 4 6 2 3 1011.1 1010.4 0.0
16/10:30pm 20.1 19.5 11.8 59 4.7 SE 6 7 3 4 1011.4 1010.7 0.0
16/10:00pm 21.1 20.4 11.4 54 5.4 ESE 6 9 3 5 1011.2 1010.5 0.0
16/09:30pm 22.1 21.2 10.6 48 6.4 ESE 6 7 3 4 1011.3 1010.6 0.0
16/09:00pm 23.3 22.0 10.0 43 7.4 E 7 11 4 6 1011.1 1010.4 0.0
16/08:30pm 24.9 23.7 10.4 40 8.1 ESE 7 9 4 5 1011.0 1010.3 0.0
16/08:00pm 27.0 25.2 10.7 36 9.3 SE 11 15 6 8 1011.1 1010.4 0.0
16/07:30pm 28.8 26.5 10.5 32 10.5 SE 13 19 7 10 1011.1 1010.4 0.0
16/07:00pm 29.5 26.7 10.1 30 11.1 SE 15 20 8 11 1011.1 1010.4 0.0
16/06:30pm 29.9 26.3 9.9 29 11.4 ESE 19 24 10 13 1010.8 1010.1 0.0
16/06:00pm 31.4 28.3 9.0 25 12.7 SE 15 20 8 11 1010.6 1009.9 0.0
16/05:30pm 33.4 29.9 1.3 13 16.2 NW 9 19 5 10 1010.7 1010.0 0.0
16/05:00pm 33.4 29.0 0.1 12 16.5 WNW 13 20 7 11 1010.9 1010.2 0.0
16/04:30pm 33.8 29.8 2.6 14 16.1 WNW 13 24 7 13 1011.1 1010.4 0.0
16/04:00pm 33.7 30.2 3.5 15 15.8 NW 11 19 6 10 1011.2 1010.5 0.0
16/03:30pm 31.9 26.9 1.1 14 15.3 W 17 26 9 14 1012.0 1011.2 0.0
16/03:00pm 33.7 30.0 4.4 16 15.6 WNW 13 26 7 14 1012.3 1011.6 0.0
16/02:30pm 32.1 28.6 5.6 19 14.2 NW 13 19 7 10 1012.7 1012.0 0.0
16/02:00pm 30.3 26.1 5.6 21 13.1 WNW 17 26 9 14 1013.2 1012.5 0.0
16/01:30pm 29.8 26.4 5.8 22 12.8 WNW 13 26 7 14 1013.6 1012.9 0.0
16/01:00pm 29.2 26.5 7.2 25 11.9 W 11 20 6 11 1014.0 1013.3 0.0
16/12:30pm 28.6 26.1 8.3 28 11.2 W 11 24 6 13 1014.3 1013.6 0.0
16/12:00pm 26.8 24.0 8.7 32 10.0 WSW 13 22 7 12 1014.6 1013.9 0.0
16/11:30am 25.6 23.1 8.1 33 9.5 W 11 19 6 10 1014.8 1014.1 0.0
16/11:00am 24.6 23.1 8.5 36 8.7 WSW 6 13 3 7 1015.2 1014.5 0.0
16/10:30am 21.9 21.3 10.4 48 6.4 NW 4 7 2 4 1015.6 1014.9 0.0
16/10:00am 20.9 20.6 11.5 55 5.3 WNW 4 9 2 5 1016.0 1015.3 0.0
16/09:30am 18.8 18.8 11.1 61 4.2 NNE 2 6 1 3 1015.8 1015.2 0.0
16/09:00am 16.8 16.0 10.9 68 3.2 ENE 6 11 3 6 1015.7 1015.0 0.0
16/08:30am 15.1 14.2 11.5 79 2.0 NNE 7 11 4 6 1016.1 1015.4 0.0
16/08:00am 13.0 12.4 11.7 92 0.7 N 6 11 3 6 1016.3 1015.6 0.0
16/07:30am 10.6 9.8 9.7 94 0.5 N 4 6 2 3 1016.2 1015.5 0.0
16/07:00am 9.1 7.5 8.2 94 0.4 N 6 6 3 3 1015.8 1015.2 0.0
16/06:30am 9.1 7.9 8.0 93 0.5 NNE 4 4 2 2 1015.8 1015.2 0.0
16/06:00am 9.8 8.7 8.6 92 0.6 NNE 4 6 2 3 1015.8 1015.2 0.0
16/05:30am 10.9 9.8 9.8 93 0.6 NE 6 6 3 3 1015.6 1014.9 0.0
16/05:00am 10.9 9.8 9.8 93 0.6 NE 6 7 3 4 1015.4 1014.7 0.0
16/04:30am 9.9 8.9 9.0 94 0.4 N 4 6 2 3 1015.5 1014.8 0.0
16/04:00am 9.7 8.7 8.8 94 0.4 N 4 6 2 3 1015.5 1014.8 0.0
16/03:30am 9.0 7.8 8.1 94 0.4 NNE 4 6 2 3 1015.5 1014.8 0.0
16/03:00am 8.2 6.8 7.3 94 0.4 NNE 4 6 2 3 1015.7 1015.0 0.0
16/02:30am 8.2 6.4 7.1 93 0.5 N 6 6 3 3 1016.1 1015.4 0.0
16/02:00am 8.6 7.3 7.5 93 0.5 N 4 6 2 3 1016.4 1015.7 0.0
16/01:30am 9.1 7.9 7.9 92 0.6 NNE 4 4 2 2 1016.6 1015.9 0.0
16/01:00am 9.7 8.6 8.3 91 0.7 NNE 4 4 2 2 1017.1 1016.4 0.0
16/12:30am 10.1 9.0 8.5 90 0.8 N 4 4 2 2 1017.3 1016.6 0.0
16/12:00am 10.7 10.0 8.6 87 1.0 NE 2 4 1 2 1017.4 1016.7 0.0
 
Date/Time
EDT
Temp
°C
App
Temp
°C
Dew
Point
°C
Rel
Hum
%
Delta-T
°C
Wind Press
QNH
hPa
Press
MSL
hPa
Rain since
9am
mm
Dir  Spd
km/h
Gust
km/h
Spd
kts
Gust
kts
15/11:30pm 11.7 10.8 9.4 86 1.2 ENE 4 4 2 2 1017.6 1016.9 0.0
15/11:00pm 11.9 11.1 9.5 85 1.2 ENE 4 4 2 2 1017.8 1017.1 0.0
15/10:30pm 12.6 11.4 9.6 82 1.5 E 6 9 3 5 1018.0 1017.3 0.0
15/10:00pm 12.9 11.7 9.7 81 1.7 E 6 7 3 4 1018.0 1017.3 0.0
15/09:30pm 13.8 12.5 10.0 78 2.0 ESE 7 13 4 7 1018.1 1017.4 0.0
15/09:00pm 14.5 12.4 9.9 74 2.4 ESE 11 13 6 7 1018.1 1017.4 0.0
15/08:30pm 15.4 13.3 9.7 69 3.0 ESE 11 17 6 9 1018.2 1017.5 0.0
15/08:00pm 16.6 13.8 10.0 65 3.5 ESE 15 22 8 12 1017.9 1017.2 0.0
15/07:30pm 17.8 15.1 10.2 61 4.1 ESE 15 20 8 11 1017.7 1017.0 0.0
15/07:00pm 18.5 15.3 9.8 57 4.7 ESE 17 24 9 13 1017.5 1016.8 0.0
15/06:30pm 19.8 16.6 10.0 53 5.3 ESE 17 24 9 13 1017.4 1016.7 0.0
15/06:00pm 20.9 17.8 10.4 51 5.8 SE 17 26 9 14 1017.3 1016.6 0.0
15/05:30pm 22.7 20.2 8.4 40 7.7 S 11 20 6 11 1017.4 1016.7 0.0
15/05:00pm 23.3 20.5 8.6 39 7.9 SSW 13 20 7 11 1017.5 1016.8 0.0
15/04:30pm 22.3 20.4 7.7 39 7.7 SW 7 13 4 7 1017.7 1017.0 0.0
15/04:00pm 22.4 19.3 7.4 38 7.9 SW 13 22 7 12 1018.0 1017.3 0.0
15/03:30pm 22.8 20.2 7.8 38 7.9 WSW 11 17 6 9 1018.1 1017.4 0.0
15/03:00pm 22.3 19.6 7.3 38 7.8 WSW 11 20 6 11 1018.2 1017.5 0.0
15/02:30pm 22.0 19.7 7.4 39 7.6 S 9 24 5 13 1018.2 1017.5 0.0
15/02:00pm 21.9 19.7 7.7 40 7.5 WSW 9 19 5 10 1018.6 1017.9 0.0
15/01:30pm 20.9 18.5 7.2 41 7.1 SW 9 17 5 9 1018.6 1017.9 0.0
15/01:00pm 19.6 17.5 6.7 43 6.5 W 7 15 4 8 1018.9 1018.2 0.0
15/12:30pm 19.7 16.9 6.8 43 6.6 W 11 17 6 9 1019.1 1018.4 0.0
15/12:00pm 18.5 15.6 6.7 46 5.9 WSW 11 19 6 10 1019.1 1018.4 0.0
15/11:30am 17.8 14.7 7.2 50 5.4 SSW 13 22 7 12 1019.1 1018.4 0.0
15/11:00am 17.1 15.1 6.9 51 5.1 SSW 7 17 4 9 1019.1 1018.4 0.0
15/10:30am 15.9 13.3 6.3 53 4.7 W 9 17 5 9 1019.3 1018.6 0.0
15/10:00am 15.6 13.2 6.9 56 4.3 SSW 9 17 5 9 1019.5 1018.9 0.0
15/09:30am 14.6 12.2 7.2 61 3.7 SW 9 17 5 9 1019.5 1018.9 0.0
15/09:00am 14.1 12.4 7.4 64 3.3 W 6 11 3 6 1019.3 1018.6 0.0
15/08:30am 13.5 11.5 7.1 65 3.1 W 7 11 4 6 1019.1 1018.4 0.0
15/08:00am 13.3 11.3 7.1 66 3.0 SW 7 11 4 6 1018.9 1018.2 0.0
15/07:30am 13.1 11.1 7.3 68 2.9 SW 7 11 4 6 1018.6 1017.9 0.0
15/07:00am 12.9 11.3 7.8 71 2.5 SW 6 7 3 4 1018.3 1017.6 0.0
15/06:30am 12.8 11.1 7.5 70 2.6 SW 6 7 3 4 1018.0 1017.3 0.0
15/06:00am 12.9 11.2 7.4 69 2.7 SW 6 7 3 4 1017.9 1017.2 0.0
15/05:30am 13.0 10.6 7.0 67 2.9 SSW 9 13 5 7 1017.8 1017.1 0.0
15/05:00am 12.9 10.9 7.1 68 2.8 SW 7 13 4 7 1017.2 1016.5 0.0
15/04:30am 12.9 11.2 7.4 69 2.7 SW 6 13 3 7 1017.0 1016.3 0.0
15/04:00am 12.8 10.9 7.5 70 2.6 WSW 7 13 4 7 1017.0 1016.3 0.0
15/03:30am 12.5 10.8 8.4 76 2.1 WSW 7 13 4 7 1016.9 1016.2 0.0
15/03:00am 12.6 11.1 8.5 76 2.1 WSW 6 11 3 6 1016.8 1016.1 0.0
15/02:30am 12.5 10.9 8.6 77 2.0 WSW 7 15 4 8 1016.8 1016.1 0.0
15/02:00am 12.5 10.8 8.4 76 2.1 WSW 7 13 4 7 1016.9 1016.2 0.0
15/01:30am 12.4 10.7 8.5 77 2.0 WSW 7 13 4 7 1017.1 1016.4 0.0
15/01:00am 12.1 9.6 8.4 78 1.8 WSW 11 19 6 10 1017.2 1016.5 0.0
15/12:30am 12.4 10.3 8.1 75 2.1 WSW 9 15 5 8 1017.0 1016.3 0.0
15/12:00am 13.4 10.5 8.3 71 2.6 WSW 13 24 7 13 1017.0 1016.3 0.0
 
Date/Time
EDT
Temp
°C
App
Temp
°C
Dew
Point
°C
Rel
Hum
%
Delta-T
°C
Wind Press
QNH
hPa
Press
MSL
hPa
Rain since
9am
mm
Dir  Spd
km/h
Gust
km/h
Spd
kts
Gust
kts
14/11:30pm 13.7 11.8 7.7 67 3.0 SW 7 13 4 7 1016.9 1016.2 0.0
14/11:00pm 13.8 11.2 7.6 66 3.1 SW 11 19 6 10 1016.9 1016.2 0.0
14/10:30pm 13.2 11.5 8.3 72 2.5 SW 7 15 4 8 1016.8 1016.1 0.0
14/10:00pm 13.5 10.2 8.1 70 2.7 SW 15 20 8 11 1016.5 1015.8 0.0
14/09:30pm 14.0 11.4 7.8 66 3.1 WSW 11 20 6 11 1016.1 1015.4 0.0
14/09:00pm 15.0 11.3 7.8 62 3.6 WSW 17 28 9 15 1015.8 1015.2 0.0
14/08:30pm 15.9 12.1 7.7 58 4.2 WSW 17 28 9 15 1015.4 1014.7 0.0
14/08:00pm 16.9 12.7 7.3 53 4.9 WSW 19 30 10 16 1014.9 1014.2 0.0
14/07:30pm 16.9 11.5 6.4 50 5.2 WSW 24 41 13 22 1014.2 1013.5 0.0
14/07:00pm 18.4 13.6 7.2 48 5.7 WSW 22 41 12 22 1013.8 1013.1 0.0
14/06:30pm 18.5 13.6 8.5 52 5.2 WSW 24 39 13 21 1013.5 1012.8 0.0
14/06:00pm 18.9 13.6 6.7 45 6.2 WSW 24 44 13 24 1013.1 1012.4 0.0

Latest Capital City Observations: Canberra | Sydney | Melbourne | Brisbane | Adelaide | Perth | Hobart | Darwin

Other Formats:

Comma delimited format used in spreadsheet applications
http://www.bom.gov.au/fwo/IDV60901/IDV60901.94863.axf

JavaScript Object Notation format (JSON) in row-major order
http://www.bom.gov.au/fwo/IDV60901/IDV60901.94863.json